Time;durP1;ratioP1;P1;durP2;ratioP2;P2;SDS_P1;SDS_P2;PMS_P1;PMS_P2;Temp;Humidity;BMP_temperature;BMP_pressure;BME280_temperature;BME280_humidity;BME280_pressure;Samples;Min_cycle;Max_cycle;Signal;HPM_P1;HPM_P2
2022/03/22 00:00:19;;;;;;;52.58;28.48;;;7.80;99.90;;;;;;5093445;28;20098;-68
2022/03/22 00:02:45;;;;;;;50.33;28.40;;;7.70;99.90;;;;;;5091189;28;20039;-68
2022/03/22 00:05:11;;;;;;;63.20;29.60;;;7.70;99.90;;;;;;5075056;28;20040;-68
2022/03/22 00:07:36;;;;;;;56.30;30.45;;;7.70;99.90;;;;;;5092996;28;20097;-67
2022/03/22 00:10:03;;;;;;;59.15;30.42;;;7.70;99.90;;;;;;5091343;28;20044;-68
2022/03/22 00:12:28;;;;;;;53.88;28.25;;;7.60;99.90;;;;;;5092420;28;20084;-68
2022/03/22 00:14:54;;;;;;;56.25;28.67;;;7.60;99.90;;;;;;5091732;28;20075;-67
2022/03/22 00:17:21;;;;;;;57.45;28.85;;;7.60;99.90;;;;;;5093094;28;20036;-67
2022/03/22 00:19:47;;;;;;;52.58;29.65;;;7.60;99.90;;;;;;5091609;28;20066;-68
2022/03/22 00:22:14;;;;;;;55.92;28.88;;;7.60;99.90;;;;;;5092197;28;20036;-68
2022/03/22 00:24:40;;;;;;;54.75;30.10;;;7.60;99.90;;;;;;5068761;28;20044;-68
2022/03/22 00:27:06;;;;;;;55.50;30.08;;;7.50;99.90;;;;;;5075133;28;20036;-68
2022/03/22 00:29:32;;;;;;;54.47;30.05;;;7.50;99.90;;;;;;5091589;28;20036;-67
2022/03/22 00:31:58;;;;;;;51.92;29.05;;;7.40;99.90;;;;;;5089282;28;20051;-68
2022/03/22 00:34:24;;;;;;;57.47;28.33;;;7.50;99.90;;;;;;5092679;28;20040;-68
2022/03/22 00:36:50;;;;;;;58.95;29.02;;;7.40;99.90;;;;;;5092593;28;20047;-68
2022/03/22 00:39:16;;;;;;;56.28;30.33;;;7.50;99.90;;;;;;5092442;28;20480;-68
2022/03/22 00:41:42;;;;;;;55.30;28.55;;;7.40;99.90;;;;;;5090575;28;20101;-67
2022/03/22 00:44:08;;;;;;;54.20;28.77;;;7.30;99.90;;;;;;5092492;28;20492;-67
2022/03/22 00:46:35;;;;;;;47.88;26.85;;;7.30;99.90;;;;;;5092723;28;20063;-68
2022/03/22 00:49:02;;;;;;;56.05;27.42;;;7.20;99.90;;;;;;5091033;28;20051;-69
2022/03/22 00:51:28;;;;;;;55.50;28.77;;;7.20;99.90;;;;;;5074559;28;20405;-69
2022/03/22 00:53:53;;;;;;;57.85;30.27;;;7.20;99.90;;;;;;5090323;28;20040;-69
2022/03/22 00:56:19;;;;;;;50.92;28.88;;;7.20;99.90;;;;;;5092539;28;20047;-68
2022/03/22 00:58:45;;;;;;;52.80;30.40;;;7.20;99.90;;;;;;5092628;28;20047;-68
2022/03/22 01:01:10;;;;;;;56.42;29.13;;;7.20;99.90;;;;;;5096493;28;20032;-68
2022/03/22 01:03:36;;;;;;;55.40;29.40;;;7.20;99.90;;;;;;5114260;28;20500;-69
2022/03/22 01:06:01;;;;;;;54.47;29.60;;;7.20;99.90;;;;;;5106034;28;20048;-69
2022/03/22 01:08:30;;;;;;;54.30;27.50;;;7.20;99.90;;;;;;5090405;28;20028;-67
2022/03/22 01:10:56;;;;;;;53.95;29.08;;;7.20;99.90;;;;;;5091994;28;20044;-67
2022/03/22 01:13:25;;;;;;;57.30;29.33;;;7.20;99.90;;;;;;5089813;28;20032;-67
2022/03/22 01:15:51;;;;;;;55.45;30.25;;;7.20;99.90;;;;;;5091913;28;20123;-67
2022/03/22 01:18:17;;;;;;;51.72;29.92;;;7.30;99.90;;;;;;5090379;28;20044;-67
2022/03/22 01:20:46;;;;;;;53.70;27.48;;;7.20;99.90;;;;;;5090535;28;20063;-67
2022/03/22 01:23:13;;;;;;;52.58;29.58;;;7.10;99.90;;;;;;5089567;28;20055;-67
2022/03/22 01:25:41;;;;;;;50.20;28.45;;;7.00;99.90;;;;;;5091763;28;20047;-67
2022/03/22 01:28:09;;;;;;;50.03;28.83;;;7.00;99.90;;;;;;5091315;28;20500;-67
2022/03/22 01:30:36;;;;;;;51.47;28.48;;;7.00;99.90;;;;;;5091315;28;20055;-67
2022/03/22 01:33:02;;;;;;;55.65;29.15;;;6.90;99.90;;;;;;5090553;28;20507;-67
2022/03/22 01:35:27;;;;;;;53.40;29.92;;;7.00;99.90;;;;;;5091271;28;20047;-67
2022/03/22 01:37:55;;;;;;;49.40;28.88;;;7.00;99.90;;;;;;5089812;28;20489;-67
2022/03/22 01:40:22;;;;;;;49.90;28.83;;;7.00;99.90;;;;;;5089835;28;20063;-67
2022/03/22 01:42:49;;;;;;;50.42;28.20;;;7.00;99.90;;;;;;5089131;28;20414;-67
2022/03/22 01:45:15;;;;;;;51.13;28.63;;;7.00;99.90;;;;;;5091223;28;20043;-67
2022/03/22 01:47:43;;;;;;;50.83;27.38;;;6.90;99.90;;;;;;5091348;28;20052;-67
2022/03/22 01:50:11;;;;;;;49.63;27.38;;;6.90;99.90;;;;;;5089661;28;20579;-68
2022/03/22 01:52:43;;;;;;;54.17;29.02;;;6.80;99.90;;;;;;5089187;28;20048;-68
2022/03/22 01:55:10;;;;;;;54.47;29.65;;;6.80;99.90;;;;;;5089606;28;20145;-67
2022/03/22 01:57:36;;;;;;;55.22;30.50;;;6.70;99.90;;;;;;5089539;28;20032;-67
2022/03/22 02:00:13;;;;;;;53.88;28.42;;;6.70;99.90;;;;;;5090796;28;20092;-68
2022/03/22 02:08:12;;;;;;;54.13;28.85;;;6.70;99.90;;;;;;5089464;28;20067;-69
2022/03/22 02:10:38;;;;;;;51.75;28.48;;;6.60;99.90;;;;;;5090601;28;20044;-69
2022/03/22 02:13:04;;;;;;;52.42;27.30;;;6.60;99.90;;;;;;5088410;28;20126;-67
2022/03/22 02:15:29;;;;;;;52.28;28.38;;;6.50;99.90;;;;;;5089201;28;20484;-67
2022/03/22 02:17:55;;;;;;;54.53;29.65;;;6.50;99.90;;;;;;5089148;28;20036;-67
2022/03/22 02:20:21;;;;;;;53.85;28.67;;;6.50;99.90;;;;;;5090875;28;20035;-67
2022/03/22 02:23:13;;;;;;;54.63;28.75;;;6.50;99.90;;;;;;5090425;28;20577;-67
2022/03/22 02:25:38;;;;;;;50.35;28.60;;;6.50;99.90;;;;;;5096243;28;20019;-66
2022/03/22 02:28:05;;;;;;;56.28;29.38;;;6.50;99.90;;;;;;5112322;28;20118;-68
2022/03/22 02:30:31;;;;;;;56.78;28.60;;;6.50;99.90;;;;;;5090745;28;20450;-67
2022/03/22 02:33:00;;;;;;;53.72;28.52;;;6.40;99.90;;;;;;5089586;28;20561;-67
2022/03/22 02:35:28;;;;;;;54.65;29.60;;;6.40;99.90;;;;;;5090562;28;20040;-67
2022/03/22 02:37:54;;;;;;;58.30;30.42;;;6.40;99.90;;;;;;5089572;28;20096;-67
2022/03/22 02:40:20;;;;;;;50.47;28.50;;;6.30;99.90;;;;;;5089088;28;20173;-67
2022/03/22 02:42:51;;;;;;;49.83;28.40;;;6.30;99.90;;;;;;5089631;28;20116;-68
2022/03/22 02:45:17;;;;;;;51.22;28.55;;;6.40;99.90;;;;;;5090224;28;20051;-67
2022/03/22 02:47:44;;;;;;;54.58;28.85;;;6.50;99.90;;;;;;5090229;28;20044;-67
2022/03/22 02:50:10;;;;;;;54.40;29.02;;;6.50;99.90;;;;;;5089904;28;20099;-68
2022/03/22 02:52:37;;;;;;;53.38;30.23;;;6.50;99.90;;;;;;5089219;28;20077;-68
2022/03/22 02:55:06;;;;;;;50.42;29.58;;;6.50;99.90;;;;;;5091612;28;20143;-67
2022/03/22 02:57:32;;;;;;;50.03;28.55;;;6.40;99.90;;;;;;5095944;28;20044;-67
2022/03/22 02:59:57;;;;;;;56.75;30.13;;;6.40;99.90;;;;;;5097070;28;20779;-67
2022/03/22 03:02:23;;;;;;;51.45;27.40;;;6.40;99.90;;;;;;5096466;28;20135;-68
2022/03/22 03:04:49;;;;;;;51.17;27.05;;;6.40;99.90;;;;;;5097041;28;20048;-67
2022/03/22 03:07:14;;;;;;;54.15;29.92;;;6.40;99.90;;;;;;5095574;28;20338;-67
2022/03/22 03:09:40;;;;;;;54.42;29.45;;;6.60;99.90;;;;;;5097024;28;20385;-67
2022/03/22 03:12:06;;;;;;;49.40;28.75;;;6.70;99.90;;;;;;5096505;28;20044;-68
2022/03/22 03:14:40;;;;;;;53.25;29.33;;;6.60;99.90;;;;;;5079070;28;20036;-68
2022/03/22 03:17:08;;;;;;;62.25;30.23;;;6.70;99.90;;;;;;5096967;28;20107;-67
2022/03/22 03:19:33;;;;;;;59.65;30.20;;;6.80;99.90;;;;;;5095187;28;20159;-68
2022/03/22 03:21:59;;;;;;;54.83;30.58;;;6.90;99.90;;;;;;5094607;28;20075;-67
2022/03/22 03:24:25;;;;;;;54.53;30.38;;;6.90;99.90;;;;;;5096865;28;20040;-67
2022/03/22 03:26:51;;;;;;;51.25;30.13;;;6.90;99.90;;;;;;5096545;28;20356;-67
2022/03/22 03:29:17;;;;;;;58.33;29.95;;;6.90;99.90;;;;;;5095275;28;20480;-67
2022/03/22 03:31:42;;;;;;;54.67;30.92;;;7.00;99.90;;;;;;5077671;28;20118;-67
2022/03/22 03:34:08;;;;;;;48.97;29.25;;;6.90;99.90;;;;;;5096389;28;20723;-68
2022/03/22 03:36:34;;;;;;;56.45;30.10;;;6.90;99.90;;;;;;5095096;28;20083;-68
2022/03/22 03:39:01;;;;;;;54.80;29.33;;;6.90;99.90;;;;;;5096701;28;20043;-68
2022/03/22 03:47:07;;;;;;;49.78;28.08;;;6.70;99.90;;;;;;5106547;28;20055;-67
2022/03/22 03:49:39;;;;;;;48.15;29.05;;;6.70;99.90;;;;;;5120049;28;20075;-67
2022/03/22 03:52:07;;;;;;;52.78;29.55;;;6.60;99.90;;;;;;5106815;28;20115;-67
2022/03/22 03:54:34;;;;;;;55.65;29.10;;;6.60;99.90;;;;;;5097797;28;20040;-67
2022/03/22 03:57:00;;;;;;;54.80;29.70;;;6.60;99.90;;;;;;5096730;28;20069;-67
2022/03/22 03:59:25;;;;;;;50.85;28.48;;;6.50;99.90;;;;;;5097178;28;20032;-67
2022/03/22 04:01:51;;;;;;;60.58;29.65;;;6.50;99.90;;;;;;5094346;28;20579;-68
2022/03/22 04:04:16;;;;;;;53.15;29.63;;;6.60;99.90;;;;;;5095371;28;20126;-68
2022/03/22 04:06:42;;;;;;;49.15;29.00;;;6.60;99.90;;;;;;5093202;28;20474;-68
2022/03/22 04:09:07;;;;;;;52.80;27.88;;;6.50;99.90;;;;;;5074410;28;20132;-68
2022/03/22 04:11:33;;;;;;;57.28;29.70;;;6.50;99.90;;;;;;5092832;28;20772;-68
2022/03/22 04:13:59;;;;;;;55.28;30.05;;;6.50;99.90;;;;;;5093067;28;20082;-68
2022/03/22 04:16:24;;;;;;;50.35;28.23;;;6.50;99.90;;;;;;5091439;28;20047;-68
2022/03/22 04:18:50;;;;;;;51.58;28.02;;;6.50;99.90;;;;;;5092602;28;20111;-67
2022/03/22 04:21:16;;;;;;;49.53;28.38;;;6.50;99.90;;;;;;5092765;28;20044;-68
2022/03/22 04:23:42;;;;;;;54.83;28.95;;;6.40;99.90;;;;;;5092669;28;20381;-68
2022/03/22 04:26:07;;;;;;;52.55;28.95;;;6.50;99.90;;;;;;5092040;28;20146;-69
2022/03/22 04:34:01;;;;;;;58.03;30.38;;;6.60;99.90;;;;;;5092357;28;20082;-68
2022/03/22 04:36:30;;;;;;;54.33;29.63;;;6.60;99.90;;;;;;5092700;28;20067;-68
2022/03/22 04:38:56;;;;;;;54.25;31.27;;;6.60;99.90;;;;;;5091163;28;20040;-68
2022/03/22 04:41:22;;;;;;;57.03;30.33;;;6.60;99.90;;;;;;5092805;28;20036;-68
2022/03/22 04:43:48;;;;;;;57.08;29.58;;;6.70;99.90;;;;;;5090465;28;20051;-68
2022/03/22 04:46:18;;;;;;;54.38;29.00;;;6.60;99.90;;;;;;5092626;28;20060;-68
2022/03/22 04:48:45;;;;;;;60.97;31.00;;;6.60;99.90;;;;;;5091023;28;20052;-68
2022/03/22 04:56:43;;;;;;;54.35;28.63;;;6.60;99.90;;;;;;5092390;28;20040;-67
2022/03/22 04:59:09;;;;;;;54.47;29.45;;;6.50;99.90;;;;;;5091069;28;20128;-68
2022/03/22 05:01:35;;;;;;;53.78;30.50;;;6.50;99.90;;;;;;5092075;28;20145;-68
2022/03/22 05:04:01;;;;;;;54.13;30.98;;;6.50;99.90;;;;;;5091626;28;20040;-67
2022/03/22 05:06:27;;;;;;;55.78;30.58;;;6.40;99.90;;;;;;5092261;28;20036;-68
2022/03/22 05:08:54;;;;;;;52.20;29.48;;;6.40;99.90;;;;;;5092266;28;20036;-68
2022/03/22 05:11:22;;;;;;;52.97;28.83;;;6.40;99.90;;;;;;5106448;28;20047;-67
2022/03/22 05:13:48;;;;;;;51.03;28.83;;;6.40;99.90;;;;;;5111529;28;20024;-68
2022/03/22 05:16:14;;;;;;;50.47;28.77;;;6.40;99.90;;;;;;5097031;28;20059;-68
2022/03/22 05:18:41;;;;;;;57.78;30.33;;;6.30;99.90;;;;;;5091040;28;20432;-68
2022/03/22 05:21:07;;;;;;;48.17;29.05;;;6.20;99.90;;;;;;5092256;28;20040;-68
2022/03/22 05:23:36;;;;;;;49.78;28.27;;;6.10;99.90;;;;;;5091645;28;20500;-68
2022/03/22 05:26:04;;;;;;;50.60;29.23;;;6.10;99.90;;;;;;5091770;28;20036;-68
2022/03/22 05:28:30;;;;;;;51.70;28.35;;;6.10;99.90;;;;;;5091720;28;20134;-67
2022/03/22 05:30:56;;;;;;;51.30;29.60;;;6.10;99.90;;;;;;5088149;28;20408;-68
2022/03/22 05:33:22;;;;;;;50.03;27.83;;;6.10;99.90;;;;;;5079179;28;20416;-68
2022/03/22 05:35:48;;;;;;;52.05;28.48;;;6.00;99.90;;;;;;5082368;28;20047;-68
2022/03/22 05:38:14;;;;;;;48.30;27.67;;;6.10;99.90;;;;;;5089975;28;20505;-68
2022/03/22 05:40:40;;;;;;;54.78;29.27;;;6.10;99.90;;;;;;5089945;28;20485;-68
2022/03/22 05:43:06;;;;;;;52.78;28.20;;;6.10;99.90;;;;;;5088541;28;20051;-67
2022/03/22 05:45:32;;;;;;;52.65;29.42;;;6.10;99.90;;;;;;5089773;28;20032;-68
2022/03/22 05:48:00;;;;;;;54.78;29.00;;;6.00;99.90;;;;;;5091013;28;20032;-68
2022/03/22 05:50:27;;;;;;;51.80;29.38;;;5.90;99.90;;;;;;5091221;28;20046;-69
2022/03/22 05:52:53;;;;;;;53.85;28.40;;;5.90;99.90;;;;;;5090375;28;20044;-68
2022/03/22 05:55:18;;;;;;;50.80;26.77;;;5.90;99.90;;;;;;5091232;28;20043;-68
2022/03/22 05:57:44;;;;;;;54.03;28.75;;;6.00;99.90;;;;;;5091114;28;20488;-68
2022/03/22 06:00:11;;;;;;;61.97;30.20;;;6.10;99.90;;;;;;5090726;28;20047;-68
2022/03/22 06:02:38;;;;;;;59.58;31.83;;;6.10;99.90;;;;;;5089957;28;20036;-68
2022/03/22 06:05:09;;;;;;;50.22;28.77;;;6.10;99.90;;;;;;5090953;28;20140;-68
2022/03/22 06:07:35;;;;;;;52.47;29.98;;;6.30;99.90;;;;;;5089761;28;20066;-68
2022/03/22 06:10:01;;;;;;;56.75;27.98;;;6.30;99.90;;;;;;5090985;28;20071;-68
2022/03/22 06:12:34;;;;;;;60.30;29.40;;;6.30;99.90;;;;;;5090420;28;20059;-68
2022/03/22 06:15:14;;;;;;;53.95;30.13;;;6.40;99.90;;;;;;5089950;28;20415;-68
2022/03/22 06:17:44;;;;;;;60.00;30.55;;;6.40;99.90;;;;;;5089844;28;20036;-68
2022/03/22 06:20:10;;;;;;;53.08;28.35;;;6.50;99.90;;;;;;5090798;28;20047;-68
2022/03/22 06:22:35;;;;;;;59.75;30.00;;;6.60;99.90;;;;;;5090036;28;20055;-68
2022/03/22 06:25:01;;;;;;;53.65;29.38;;;6.60;99.90;;;;;;5090790;28;20046;-68
2022/03/22 06:27:26;;;;;;;54.58;28.27;;;6.70;99.90;;;;;;5090631;28;20492;-68
2022/03/22 06:29:52;;;;;;;53.75;28.13;;;6.70;99.90;;;;;;5089826;28;20044;-68
2022/03/22 06:32:17;;;;;;;49.92;27.70;;;6.80;99.90;;;;;;5088358;28;20051;-67
2022/03/22 06:34:43;;;;;;;52.75;28.00;;;6.90;99.90;;;;;;5089864;28;20922;-69
2022/03/22 06:37:09;;;;;;;46.78;26.55;;;6.90;99.90;;;;;;5096460;28;20039;-69
2022/03/22 06:39:34;;;;;;;53.30;25.67;;;7.00;99.90;;;;;;5111702;28;20044;-69
2022/03/22 06:42:00;;;;;;;52.72;27.13;;;7.00;99.90;;;;;;5103735;28;20519;-69
2022/03/22 06:44:25;;;;;;;54.05;29.15;;;7.10;99.90;;;;;;5093275;28;20703;-69
2022/03/22 06:46:51;;;;;;;54.10;27.77;;;7.10;99.90;;;;;;5091888;28;20036;-69
2022/03/22 06:49:16;;;;;;;56.13;29.27;;;7.20;99.90;;;;;;5090712;28;20036;-69
2022/03/22 06:51:42;;;;;;;56.45;29.02;;;7.20;99.90;;;;;;5090249;28;20043;-69
2022/03/22 06:54:07;;;;;;;52.10;27.15;;;7.30;99.90;;;;;;5090544;28;20036;-69
2022/03/22 06:56:33;;;;;;;48.30;27.40;;;7.30;99.90;;;;;;5090647;28;20628;-69
2022/03/22 06:58:58;;;;;;;53.70;28.85;;;7.40;99.90;;;;;;5079427;28;20470;-68
2022/03/22 07:01:24;;;;;;;50.25;27.42;;;7.40;99.90;;;;;;5051525;28;20529;-69
2022/03/22 07:03:50;;;;;;;57.13;28.63;;;7.40;99.90;;;;;;5049999;28;20041;-69
2022/03/22 07:06:15;;;;;;;50.28;26.30;;;7.50;99.90;;;;;;5049690;28;20040;-69
2022/03/22 07:08:41;;;;;;;51.28;27.80;;;7.60;99.90;;;;;;5049941;28;20049;-69
2022/03/22 07:13:52;;;;;;;51.33;26.65;;;7.60;99.90;;;;;;5049504;28;20366;-69
2022/03/22 07:16:19;;;;;;;47.30;26.98;;;7.80;99.90;;;;;;5050061;28;20452;-69
2022/03/22 07:18:44;;;;;;;49.40;28.05;;;7.90;99.90;;;;;;5049950;28;20052;-68
2022/03/22 07:21:10;;;;;;;51.03;27.13;;;7.90;99.90;;;;;;5048608;28;20033;-69
2022/03/22 07:23:36;;;;;;;51.22;28.30;;;8.00;99.90;;;;;;5048876;28;20029;-69
2022/03/22 07:26:01;;;;;;;52.40;27.48;;;8.10;99.90;;;;;;5049286;28;20448;-69
2022/03/22 07:28:27;;;;;;;48.20;26.92;;;8.20;99.90;;;;;;5049424;28;20037;-69
2022/03/22 07:30:53;;;;;;;52.75;26.75;;;8.30;99.90;;;;;;5048026;28;20074;-69
2022/03/22 07:33:19;;;;;;;48.92;25.60;;;8.30;99.90;;;;;;5047261;28;20041;-69
2022/03/22 07:35:44;;;;;;;47.92;25.60;;;8.40;99.90;;;;;;5048576;28;20455;-69
2022/03/22 07:38:10;;;;;;;57.08;27.55;;;8.50;99.90;;;;;;5047973;28;20037;-69
2022/03/22 07:40:35;;;;;;;47.70;26.13;;;8.60;99.90;;;;;;5031901;28;20048;-69
2022/03/22 07:43:01;;;;;;;49.92;26.83;;;8.70;99.90;;;;;;5052376;28;20064;-68
2022/03/22 07:45:27;;;;;;;48.22;26.48;;;8.70;99.90;;;;;;5053692;28;20119;-69
2022/03/22 07:47:52;;;;;;;47.75;27.23;;;8.80;99.90;;;;;;5053492;28;20049;-66
2022/03/22 07:53:05;;;;;;;47.35;26.92;;;9.00;99.90;;;;;;5052463;28;20056;-69
2022/03/22 07:55:34;;;;;;;47.00;26.02;;;9.10;99.90;;;;;;5052195;28;20420;-69
2022/03/22 07:58:00;;;;;;;42.65;25.75;;;9.20;99.90;;;;;;5057357;28;20571;-68
2022/03/22 08:00:26;;;;;;;47.95;26.05;;;9.30;99.90;;;;;;5072846;28;20075;-68
2022/03/22 08:02:54;;;;;;;50.35;26.45;;;9.40;99.90;;;;;;5070781;28;20033;-69
2022/03/22 08:05:20;;;;;;;51.33;25.65;;;9.50;99.90;;;;;;5062067;28;20045;-69
2022/03/22 08:07:46;;;;;;;49.67;26.80;;;9.60;99.90;;;;;;5063473;28;20157;-69
2022/03/22 08:10:11;;;;;;;42.35;24.52;;;9.70;99.90;;;;;;5064509;28;20064;-69
2022/03/22 08:12:37;;;;;;;42.42;25.35;;;9.80;99.90;;;;;;5062460;28;20044;-68
2022/03/22 08:15:03;;;;;;;41.90;24.65;;;9.90;99.90;;;;;;5060114;28;20175;-69
2022/03/22 08:17:28;;;;;;;45.42;25.83;;;9.90;99.90;;;;;;5063481;28;20036;-69
2022/03/22 08:19:54;;;;;;;46.97;25.63;;;10.10;99.90;;;;;;5061973;28;20040;-69
2022/03/22 08:22:19;;;;;;;46.15;25.85;;;10.20;99.90;;;;;;5059387;28;20045;-69
2022/03/22 08:24:45;;;;;;;52.17;26.33;;;10.30;99.90;;;;;;5061846;28;20385;-69
2022/03/22 08:27:11;;;;;;;42.45;25.25;;;10.30;99.90;;;;;;5061526;28;20072;-69
2022/03/22 08:29:36;;;;;;;46.97;24.70;;;10.50;99.90;;;;;;5060677;28;20037;-69
2022/03/22 08:32:02;;;;;;;42.95;24.50;;;10.60;99.90;;;;;;5061716;28;20131;-69
2022/03/22 08:34:28;;;;;;;42.10;23.85;;;10.60;99.90;;;;;;5072185;28;20051;-74
2022/03/22 08:36:54;;;;;;;48.00;23.13;;;10.70;99.90;;;;;;5071132;28;20063;-72
2022/03/22 08:39:20;;;;;;;46.53;24.95;;;10.80;99.90;;;;;;5054455;28;20123;-72
2022/03/22 08:41:45;;;;;;;40.60;23.35;;;11.00;99.90;;;;;;5071856;28;20106;-72
2022/03/22 08:44:11;;;;;;;44.55;23.80;;;11.00;99.90;;;;;;5071271;28;20046;-73
2022/03/22 08:46:37;;;;;;;43.03;24.15;;;11.10;99.90;;;;;;5072690;28;20104;-72
2022/03/22 08:49:04;;;;;;;38.58;22.77;;;11.10;99.90;;;;;;5072161;28;20083;-72
2022/03/22 08:51:30;;;;;;;43.50;25.27;;;11.30;99.90;;;;;;5072097;28;20051;-72
2022/03/22 08:53:56;;;;;;;41.83;23.60;;;11.30;99.90;;;;;;5069812;28;20186;-72
2022/03/22 08:56:25;;;;;;;40.15;23.30;;;11.30;99.90;;;;;;5071219;28;20043;-72
2022/03/22 08:58:53;;;;;;;45.28;24.52;;;11.50;99.90;;;;;;5064438;28;20090;-72
2022/03/22 09:01:27;;;;;;;44.80;24.42;;;11.60;99.90;;;;;;5060398;28;20044;-72
2022/03/22 09:06:38;;;;;;;40.78;23.35;;;11.80;99.90;;;;;;5050425;28;20076;-73
2022/03/22 09:09:09;;;;;;;43.05;23.35;;;11.70;99.90;;;;;;5050250;28;20060;-73
2022/03/22 09:11:37;;;;;;;42.03;22.95;;;11.70;99.90;;;;;;5036737;28;20040;-73
2022/03/22 09:14:03;;;;;;;42.60;23.77;;;11.90;99.90;;;;;;5064531;28;20040;-73
2022/03/22 09:16:31;;;;;;;43.80;23.38;;;11.90;99.90;;;;;;5072091;28;20036;-73
2022/03/22 09:18:57;;;;;;;42.08;25.48;;;12.00;99.90;;;;;;5070938;28;20050;-74
2022/03/22 09:21:22;;;;;;;39.90;22.83;;;12.00;99.90;;;;;;5096094;28;20096;-72
2022/03/22 09:23:48;;;;;;;39.75;22.98;;;12.10;99.90;;;;;;5089567;28;20072;-72
2022/03/22 09:26:13;;;;;;;42.95;23.48;;;12.30;99.90;;;;;;5073862;28;20080;-72
2022/03/22 09:28:39;;;;;;;36.92;22.50;;;12.30;99.90;;;;;;5073449;28;20072;-72
2022/03/22 09:31:05;;;;;;;45.08;24.08;;;12.40;99.90;;;;;;5070667;28;20448;-72
2022/03/22 09:33:30;;;;;;;39.42;22.70;;;12.50;99.90;;;;;;5069703;28;20043;-72
2022/03/22 09:35:57;;;;;;;40.63;23.58;;;12.60;99.90;;;;;;5070602;28;20041;-72
2022/03/22 09:38:24;;;;;;;48.03;23.95;;;12.60;99.90;;;;;;5061410;28;20408;-72
2022/03/22 09:40:53;;;;;;;44.03;25.48;;;12.50;99.90;;;;;;5060897;28;20105;-72
2022/03/22 09:43:22;;;;;;;44.28;23.55;;;12.60;99.90;;;;;;5061168;28;20434;-72
2022/03/22 09:45:50;;;;;;;40.28;24.10;;;12.70;99.90;;;;;;5044436;28;20044;-73
2022/03/22 09:48:17;;;;;;;51.58;24.17;;;12.80;99.90;;;;;;5062536;28;20555;-71
2022/03/22 09:53:27;;;;;;;42.83;23.40;;;13.00;99.90;;;;;;5069258;28;20055;-71
2022/03/22 09:55:53;;;;;;;40.78;22.60;;;13.00;99.90;;;;;;5068766;28;20052;-70
2022/03/22 09:58:18;;;;;;;39.70;23.50;;;13.10;99.90;;;;;;5070885;28;20032;-71
2022/03/22 10:00:44;;;;;;;32.10;20.50;;;13.20;99.30;;;;;;5069714;28;20500;-71
2022/03/22 10:03:21;;;;;;;37.38;22.20;;;13.30;99.90;;;;;;5068721;28;20040;-71
2022/03/22 10:06:05;;;;;;;39.97;21.80;;;13.40;99.90;;;;;;5069984;28;20041;-71
2022/03/22 10:08:31;;;;;;;38.60;22.52;;;13.50;99.90;;;;;;5052564;28;20127;-71
2022/03/22 10:10:58;;;;;;;43.13;23.30;;;13.50;99.90;;;;;;5070669;28;20120;-72
2022/03/22 10:13:24;;;;;;;41.00;23.33;;;13.70;99.90;;;;;;5069869;28;20049;-71
2022/03/22 10:15:50;;;;;;;42.60;24.42;;;13.70;99.90;;;;;;5070952;28;20047;-71
2022/03/22 10:18:24;;;;;;;37.67;22.73;;;13.70;99.90;;;;;;5069256;28;20082;-71
2022/03/22 10:21:01;;;;;;;46.85;22.92;;;13.80;98.10;;;;;;5069582;28;20091;-71
2022/03/22 10:23:27;;;;;;;41.85;23.75;;;13.90;99.90;;;;;;5070337;28;20370;-71
2022/03/22 10:26:03;;;;;;;44.38;23.30;;;14.00;99.90;;;;;;5070921;28;20048;-71
2022/03/22 10:28:29;;;;;;;39.50;22.23;;;14.00;99.80;;;;;;5070830;28;20051;-71
2022/03/22 10:30:57;;;;;;;40.33;21.85;;;14.00;99.90;;;;;;5052240;28;20045;-71
2022/03/22 10:33:22;;;;;;;34.40;20.73;;;14.10;99.90;;;;;;5069283;28;20071;-72
2022/03/22 10:35:48;;;;;;;36.80;22.90;;;14.20;99.00;;;;;;5070423;28;20117;-72
2022/03/22 10:38:15;;;;;;;37.38;22.23;;;14.30;97.00;;;;;;5070444;28;20190;-71
2022/03/22 10:40:45;;;;;;;38.92;22.23;;;14.30;97.50;;;;;;5083931;28;20112;-71
2022/03/22 10:43:11;;;;;;;39.03;23.42;;;14.40;93.80;;;;;;5091406;28;20085;-70
2022/03/22 10:45:47;;;;;;;39.42;23.20;;;14.50;98.60;;;;;;5074716;28;20051;-72
2022/03/22 10:48:18;;;;;;;41.15;23.35;;;14.40;95.40;;;;;;5071018;28;20048;-72
2022/03/22 10:50:47;;;;;;;41.25;22.13;;;14.60;99.60;;;;;;5068672;28;20440;-71
2022/03/22 10:53:17;;;;;;;40.95;22.63;;;14.60;97.90;;;;;;5067931;28;20043;-72
2022/03/22 10:55:44;;;;;;;38.28;22.50;;;14.70;91.30;;;;;;5052051;28;20037;-72
2022/03/22 10:58:17;;;;;;;43.70;22.77;;;14.70;99.30;;;;;;5068872;28;20040;-72
2022/03/22 11:00:45;;;;;;;38.38;23.00;;;14.80;98.30;;;;;;5069088;28;20098;-72
2022/03/22 11:03:12;;;;;;;46.67;23.67;;;14.80;97.50;;;;;;5068004;28;20079;-71
2022/03/22 11:05:40;;;;;;;40.55;21.73;;;14.80;96.60;;;;;;5069084;28;20397;-71
2022/03/22 11:08:06;;;;;;;37.35;21.75;;;14.90;99.80;;;;;;5051944;28;20044;-72
2022/03/22 11:10:32;;;;;;;39.88;22.08;;;14.90;98.50;;;;;;5068343;28;20161;-71
2022/03/22 11:12:59;;;;;;;38.63;22.45;;;15.00;99.40;;;;;;5067804;28;20127;-72
2022/03/22 11:15:32;;;;;;;41.88;22.23;;;15.10;94.30;;;;;;5068465;28;20090;-72
2022/03/22 11:17:58;;;;;;;41.50;22.17;;;15.20;91.60;;;;;;5054953;28;20033;-72
2022/03/22 11:20:25;;;;;;;38.67;22.27;;;15.20;92.60;;;;;;5073717;28;20424;-72
2022/03/22 11:22:54;;;;;;;42.10;22.40;;;15.20;85.50;;;;;;5071859;28;20090;-72
2022/03/22 11:25:35;;;;;;;40.17;23.27;;;15.30;82.10;;;;;;5072423;28;20416;-72
2022/03/22 11:28:06;;;;;;;41.40;21.75;;;15.40;90.10;;;;;;5072424;28;20437;-72
2022/03/22 11:30:33;;;;;;;38.60;20.60;;;15.50;91.20;;;;;;5073401;28;20131;-72
2022/03/22 11:35:58;;;;;;;37.78;21.73;;;15.50;74.80;;;;;;5072625;28;20155;-72
2022/03/22 11:38:42;;;;;;;36.22;21.27;;;15.60;79.30;;;;;;5072224;28;20048;-72
2022/03/22 11:44:36;;;;;;;42.47;21.85;;;15.70;78.50;;;;;;5072305;28;20400;-72
2022/03/22 11:47:17;;;;;;;40.92;23.02;;;15.80;88.90;;;;;;5071951;28;20048;-72
2022/03/22 11:49:59;;;;;;;43.95;21.75;;;15.80;85.50;;;;;;5054909;28;20045;-72
2022/03/22 11:52:26;;;;;;;37.72;21.75;;;15.80;85.60;;;;;;5070883;28;20524;-72
2022/03/22 11:54:59;;;;;;;38.60;22.25;;;15.90;91.00;;;;;;5057137;28;20104;-71
2022/03/22 11:57:25;;;;;;;35.72;20.23;;;15.90;90.00;;;;;;5071351;28;20037;-71
2022/03/22 11:59:54;;;;;;;41.08;22.60;;;16.10;82.30;;;;;;5066850;28;20037;-71
2022/03/22 12:02:26;;;;;;;42.15;22.70;;;16.10;91.30;;;;;;5076921;28;20056;-70
2022/03/22 12:04:56;;;;;;;38.23;22.03;;;16.00;88.00;;;;;;5070841;28;20044;-72
2022/03/22 12:07:30;;;;;;;40.75;20.77;;;16.20;87.40;;;;;;5055350;28;20282;-72
2022/03/22 12:10:11;;;;;;;38.55;20.65;;;16.10;79.60;;;;;;5052380;28;20037;-72
2022/03/22 12:12:37;;;;;;;36.72;20.67;;;16.30;74.50;;;;;;5051690;28;20119;-72
2022/03/22 12:15:06;;;;;;;38.30;20.30;;;16.40;76.40;;;;;;5035293;28;20040;-72
2022/03/22 12:17:32;;;;;;;40.92;20.70;;;16.40;67.50;;;;;;5034655;28;20138;-72
2022/03/22 12:20:04;;;;;;;36.78;19.83;;;16.50;69.90;;;;;;5051784;28;20145;-72
2022/03/22 12:22:30;;;;;;;37.45;21.17;;;16.60;66.50;;;;;;5052285;28;20166;-72
2022/03/22 12:24:58;;;;;;;39.60;19.67;;;16.60;68.60;;;;;;5051769;28;20425;-72
2022/03/22 12:27:25;;;;;;;40.25;21.60;;;16.60;64.50;;;;;;5050821;28;20041;-73
2022/03/22 12:29:53;;;;;;;33.90;20.05;;;16.90;61.80;;;;;;5050183;28;20040;-72
2022/03/22 12:32:21;;;;;;;37.67;20.00;;;16.80;67.20;;;;;;5051667;28;20478;-72
2022/03/22 12:34:48;;;;;;;37.80;21.52;;;16.80;67.00;;;;;;5051078;28;20037;-72
2022/03/22 12:37:18;;;;;;;38.53;19.25;;;16.80;70.00;;;;;;5051174;28;20076;-71
2022/03/22 12:39:45;;;;;;;37.13;18.98;;;16.90;61.60;;;;;;5050963;28;20132;-73
2022/03/22 12:42:13;;;;;;;42.13;19.90;;;17.10;65.50;;;;;;5053588;28;20036;-71
2022/03/22 12:44:39;;;;;;;40.22;19.77;;;17.10;63.70;;;;;;5054424;28;20040;-73
2022/03/22 12:47:06;;;;;;;37.80;18.75;;;17.10;62.20;;;;;;5052477;28;20446;-72
2022/03/22 12:49:39;;;;;;;40.30;17.55;;;17.10;60.20;;;;;;5050994;28;20123;-73
2022/03/22 12:52:07;;;;;;;34.97;19.23;;;17.10;59.70;;;;;;5033565;28;20347;-72
2022/03/22 12:54:34;;;;;;;42.15;17.58;;;17.10;59.70;;;;;;5050774;28;20049;-72
2022/03/22 12:57:01;;;;;;;39.83;18.48;;;17.20;58.40;;;;;;5052017;28;20120;-72
2022/03/22 12:59:27;;;;;;;37.35;18.45;;;17.20;59.00;;;;;;5050771;28;20040;-72
2022/03/22 13:01:58;;;;;;;35.88;19.70;;;17.20;60.30;;;;;;5051987;28;20111;-72
2022/03/22 13:04:26;;;;;;;35.78;18.42;;;17.20;58.00;;;;;;5050829;28;20089;-72
2022/03/22 13:07:00;;;;;;;37.85;18.60;;;17.20;59.00;;;;;;5050803;28;20064;-72
2022/03/22 13:12:14;;;;;;;36.42;18.75;;;17.30;58.30;;;;;;5049793;28;20096;-72
2022/03/22 13:17:29;;;;;;;36.35;17.35;;;17.30;57.80;;;;;;5050556;28;20059;-72